Time;durP1;ratioP1;P1;durP2;ratioP2;P2;SDS_P1;SDS_P2;PMS_P1;PMS_P2;Temp;Humidity;BMP_temperature;BMP_pressure;BME280_temperature;BME280_humidity;BME280_pressure;Samples;Min_cycle;Max_cycle;Signal;HPM_P1;HPM_P2
2022/02/03 00:11:21;;;;;;;67.97;20.90;;;;;;;-139.48;100.00;61774.03;5015237;28;20104;-72
2022/02/03 00:26:00;;;;;;;68.97;21.45;;;;;;;-139.48;100.00;61774.03;5014242;28;20087;-70
2022/02/03 00:28:47;;;;;;;60.25;18.48;;;;;;;-139.48;100.00;61774.03;4985833;28;20417;-72
2022/02/03 00:34:28;;;;;;;53.55;18.45;;;;;;;-139.48;100.00;61774.03;5014030;28;20067;-72
2022/02/03 00:37:30;;;;;;;67.70;20.00;;;;;;;-139.48;100.00;61774.03;5013962;28;20560;-72
2022/02/03 00:49:28;;;;;;;86.00;25.45;;;;;;;-139.48;100.00;61774.03;5014137;28;20084;-72
2022/02/03 00:52:13;;;;;;;84.55;25.20;;;;;;;-139.48;100.00;61774.03;5013645;28;20531;-72
2022/02/03 00:54:57;;;;;;;96.97;26.40;;;;;;;-139.48;100.00;61774.03;5013460;28;20052;-71
2022/02/03 00:57:51;;;;;;;71.75;26.60;;;;;;;-139.48;100.00;61774.03;5014830;28;20481;-72
2022/02/03 01:00:34;;;;;;;83.35;28.10;;;;;;;-139.48;100.00;61774.03;5013491;28;20049;-72
2022/02/03 01:03:21;;;;;;;86.28;29.45;;;;;;;-139.48;100.00;61774.03;5013718;28;20049;-71
2022/02/03 01:06:05;;;;;;;97.88;30.33;;;;;;;-139.48;100.00;61774.03;5013542;28;20414;-71
2022/02/03 01:08:50;;;;;;;93.30;32.72;;;;;;;-139.48;100.00;61774.03;5013513;28;20464;-71
2022/02/03 01:11:43;;;;;;;98.53;31.98;;;;;;;-139.48;100.00;61774.03;5014462;28;20049;-71
2022/02/03 01:15:12;;;;;;;107.68;35.33;;;;;;;-139.48;100.00;61774.03;5000602;28;20084;-71
2022/02/03 01:45:00;;;;;;;96.45;30.77;;;;;;;-139.48;100.00;61774.03;5012925;28;20088;-72
2022/02/03 01:53:33;;;;;;;83.57;28.58;;;;;;;-139.48;100.00;61774.03;5013284;28;20506;-72
2022/02/03 01:56:20;;;;;;;90.25;28.02;;;;;;;-139.48;100.00;61774.03;5012480;28;20259;-72
2022/02/03 01:59:04;;;;;;;81.93;27.25;;;;;;;-139.48;100.00;61774.03;5012632;28;20107;-72
2022/02/03 02:01:51;;;;;;;85.95;26.90;;;;;;;-139.48;100.00;61774.03;5012355;28;20520;-71
2022/02/03 02:04:44;;;;;;;82.13;26.88;;;;;;;-139.48;100.00;61774.03;5012346;28;20112;-72
2022/02/03 02:07:46;;;;;;;83.80;25.40;;;;;;;-139.48;100.00;61774.03;5012810;28;20102;-71
2022/02/03 02:11:12;;;;;;;81.55;24.73;;;;;;;-139.48;100.00;61774.03;5012577;28;20048;-72
2022/02/03 02:39:20;;;;;;;70.28;22.30;;;;;;;-139.48;100.00;61774.03;5012089;28;20103;-72
2022/02/03 02:44:32;;;;;;;75.30;22.02;;;;;;;-139.48;100.00;61774.03;5012114;28;20049;-72
2022/02/03 02:47:31;;;;;;;74.90;22.30;;;;;;;-139.48;100.00;61774.03;5011905;28;20521;-71
2022/02/03 02:50:22;;;;;;;63.97;21.00;;;;;;;-139.48;100.00;61774.03;5012066;28;20697;-72
2022/02/03 02:53:34;;;;;;;64.70;20.65;;;;;;;-139.48;100.00;61774.03;5014059;28;20053;-72
2022/02/03 02:56:41;;;;;;;55.85;19.25;;;;;;;-139.48;100.00;61774.03;5015996;28;20128;-72
2022/02/03 03:30:20;;;;;;;27.38;13.73;;;;;;;-139.48;100.00;61774.03;5016269;28;20472;-72
2022/02/03 03:36:09;;;;;;;27.48;13.95;;;;;;;-139.48;100.00;61774.03;5016465;28;20076;-70
2022/02/03 03:38:55;;;;;;;26.27;12.48;;;;;;;-139.48;100.00;61774.03;5015115;28;20048;-71
2022/02/03 03:41:42;;;;;;;26.70;12.60;;;;;;;-139.48;100.00;61774.03;5015261;28;20084;-72
2022/02/03 03:44:30;;;;;;;23.88;12.40;;;;;;;-139.48;100.00;61774.03;5014969;28;20155;-72
2022/02/03 03:47:19;;;;;;;22.08;12.43;;;;;;;-139.48;100.00;61774.03;5015071;28;20072;-71
2022/02/03 03:50:11;;;;;;;19.17;11.30;;;;;;;-139.48;100.00;61774.03;5001249;28;20044;-71
2022/02/03 03:53:01;;;;;;;21.92;11.13;;;;;;;-139.48;100.00;61774.03;5015631;28;20048;-72
2022/02/03 03:55:59;;;;;;;17.60;10.63;;;;;;;-139.48;100.00;61774.03;5014996;28;20056;-72
2022/02/03 04:46:08;;;;;;;25.58;12.63;;;;;;;-139.48;100.00;61774.03;5015382;28;20056;-70
2022/02/03 04:59:38;;;;;;;29.30;15.20;;;;;;;-139.48;100.00;61774.03;5014180;28;20159;-71
2022/02/03 05:02:19;;;;;;;26.70;15.13;;;;;;;-139.48;100.00;61774.03;5014651;28;20051;-71
2022/02/03 05:25:16;;;;;;;31.23;17.50;;;;;;;-139.48;100.00;61774.03;5014556;28;20068;-71
2022/02/03 05:35:06;;;;;;;28.35;16.85;;;;;;;-139.48;100.00;61774.03;4974404;28;20050;-71
2022/02/03 05:44:22;;;;;;;31.95;17.38;;;;;;;-139.48;100.00;61774.03;4974067;28;20554;-71
2022/02/03 05:47:23;;;;;;;31.98;15.85;;;;;;;-139.48;100.00;61774.03;4960321;28;20053;-71
2022/02/03 05:51:02;;;;;;;35.60;18.83;;;;;;;-139.48;100.00;61774.03;4959920;28;20050;-71
2022/02/03 06:08:18;;;;;;;41.17;16.80;;;;;;;-139.48;100.00;61774.03;4974933;28;20061;-71
2022/02/03 06:14:05;;;;;;;39.72;17.45;;;;;;;-139.48;100.00;61774.03;4973382;28;20073;-71
2022/02/03 06:22:49;;;;;;;34.75;16.50;;;;;;;-139.48;100.00;61774.03;4962365;28;20046;-71
2022/02/03 06:28:36;;;;;;;42.78;17.13;;;;;;;-139.48;100.00;61774.03;4973266;28;20470;-71
2022/02/03 06:31:20;;;;;;;41.92;18.00;;;;;;;-139.48;100.00;61774.03;4974313;28;20058;-71
2022/02/03 06:34:04;;;;;;;;;;;;;;;-139.48;100.00;61774.03;4960116;28;20061;-71
2022/02/03 06:36:52;;;;;;;45.65;18.25;;;;;;;-139.48;100.00;61774.03;4973281;28;20377;-71
2022/02/03 06:39:36;;;;;;;43.95;18.67;;;;;;;-139.48;100.00;61774.03;4973944;28;20073;-71
2022/02/03 06:42:20;;;;;;;48.40;19.85;;;;;;;-139.48;100.00;61774.03;4974130;28;20057;-71
2022/02/03 06:45:18;;;;;;;;;;;;;;;-139.48;100.00;61774.03;4973502;28;20530;-71
2022/02/03 06:48:11;;;;;;;53.28;21.17;;;;;;;-139.48;100.00;61774.03;4973033;28;20429;-71
2022/02/03 06:51:03;;;;;;;49.03;21.73;;;;;;;-139.48;100.00;61774.03;4973071;28;20054;-71
2022/02/03 06:53:52;;;;;;;50.50;22.23;;;;;;;-139.48;100.00;61774.03;4972769;28;20057;-70
2022/02/03 06:56:48;;;;;;;47.45;19.80;;;;;;;-139.48;100.00;61774.03;4946281;28;20073;-70
2022/02/03 06:59:47;;;;;;;46.58;21.30;;;;;;;-139.48;100.00;61774.03;4973630;28;20156;-70
2022/02/03 07:02:36;;;;;;;47.70;21.48;;;;;;;-139.48;100.00;61774.03;4973976;28;20509;-70
2022/02/03 07:05:22;;;;;;;48.50;21.58;;;;;;;-139.48;100.00;61774.03;4972956;28;20093;-71
2022/02/03 07:08:11;;;;;;;45.10;19.83;;;;;;;-139.48;100.00;61774.03;4959145;28;20513;-70
2022/02/03 07:10:56;;;;;;;39.92;19.02;;;;;;;-139.48;100.00;61774.03;4959059;28;20057;-69
2022/02/03 07:13:40;;;;;;;42.40;19.48;;;;;;;-139.48;100.00;61774.03;4972730;28;20475;-69
2022/02/03 07:16:23;;;;;;;37.70;19.05;;;;;;;-139.48;100.00;61774.03;4958894;28;20485;-69
2022/02/03 07:19:07;;;;;;;;;;;;;;;-139.48;100.00;61774.03;4972854;28;20049;-69
2022/02/03 07:21:51;;;;;;;34.47;18.60;;;;;;;-139.48;100.00;61774.03;4973843;28;19968;-69
2022/02/03 07:24:35;;;;;;;;;;;;;;;-139.48;100.00;61774.03;4959646;28;20129;-70
2022/02/03 07:27:20;;;;;;;36.08;17.95;;;;;;;-139.48;100.00;61774.03;4972742;28;19923;-70
2022/02/03 07:30:05;;;;;;;37.45;19.25;;;;;;;-139.48;100.00;61774.03;4972539;28;20514;-69
2022/02/03 07:32:55;;;;;;;41.95;20.73;;;;;;;-139.48;100.00;61774.03;4972676;28;20057;-69
2022/02/03 07:35:39;;;;;;;35.90;18.70;;;;;;;-139.48;100.00;61774.03;4973430;28;20046;-69
2022/02/03 07:38:23;;;;;;;33.22;18.55;;;;;;;-139.48;100.00;61774.03;4973048;28;20062;-70
2022/02/03 07:41:07;;;;;;;;;;;;;;;-139.48;100.00;61774.03;4963024;28;20045;-69
2022/02/03 07:43:51;;;;;;;37.47;19.17;;;;;;;-139.48;100.00;61774.03;4976538;28;20016;-69
2022/02/03 07:46:35;;;;;;;;;;;;;;;-139.48;100.00;61774.03;4977410;28;20105;-69
2022/02/03 07:49:19;;;;;;;35.17;18.37;;;;;;;-139.48;100.00;61774.03;4976035;28;19921;-70
2022/02/03 07:52:04;;;;;;;32.85;18.55;;;;;;;-139.48;100.00;61774.03;4962315;28;20271;-68
2022/02/03 07:54:47;;;;;;;29.08;16.98;;;;;;;-139.48;100.00;61774.03;4962126;28;20057;-69
2022/02/03 07:57:32;;;;;;;;;;;;;;;-139.48;100.00;61774.03;4976403;28;20068;-69
2022/02/03 08:00:17;;;;;;;30.00;17.45;;;;;;;-139.48;100.00;61774.03;4976657;28;20013;-69
2022/02/03 08:03:06;;;;;;;28.55;16.35;;;;;;;-139.48;100.00;61774.03;4976808;28;20141;-70
2022/02/03 08:05:56;;;;;;;26.25;16.10;;;;;;;-139.48;100.00;61774.03;4949086;28;20191;-70
2022/02/03 08:08:52;;;;;;;28.75;16.70;;;;;;;-139.48;100.00;61774.03;4976721;28;20050;-69
2022/02/03 08:11:42;;;;;;;26.75;15.30;;;;;;;-139.48;100.00;61774.03;4976630;28;20093;-69
2022/02/03 08:14:37;;;;;;;29.38;15.65;;;;;;;-139.48;100.00;61774.03;4975519;28;20430;-69
2022/02/03 08:17:27;;;;;;;26.95;15.80;;;;;;;-139.48;100.00;61774.03;4976599;28;20089;-69
2022/02/03 08:20:15;;;;;;;26.55;16.02;;;;;;;-139.48;100.00;61774.03;4975507;28;20057;-70
2022/02/03 08:26:25;;;;;;;22.90;13.32;;;;;;;-139.48;100.00;61774.03;4975556;28;20560;-69
2022/02/03 08:32:16;;;;;;;21.70;13.32;;;;;;;-139.48;100.00;61774.03;4975362;28;20109;-70
2022/02/03 08:38:02;;;;;;;24.90;14.23;;;;;;;-139.48;100.00;61774.03;4975092;28;20533;-70
2022/02/03 08:43:38;;;;;;;20.77;13.40;;;;;;;-139.48;100.00;61774.03;4975404;28;20081;-69
2022/02/03 08:46:25;;;;;;;21.95;13.63;;;;;;;-139.48;100.00;61774.03;4974713;28;20050;-69
2022/02/03 08:49:10;;;;;;;19.90;12.23;;;;;;;-139.48;100.00;61774.03;4961110;28;20133;-69
2022/02/03 08:51:55;;;;;;;18.33;12.07;;;;;;;-139.48;100.00;61774.03;4974129;28;20054;-69
2022/02/03 08:54:47;;;;;;;17.10;11.40;;;;;;;-139.48;100.00;61774.03;4975551;28;20069;-69
2022/02/03 08:57:58;;;;;;;20.80;12.77;;;;;;;-139.48;100.00;61774.03;4975906;28;20065;-69
2022/02/03 09:44:59;;;;;;;12.70;8.13;;;;;;;-139.48;100.00;61774.03;4975261;28;20101;-69
2022/02/03 09:52:07;;;;;;;12.15;8.02;;;;;;;-139.48;100.00;61774.03;4973717;28;20113;-69
2022/02/03 09:54:43;;;;;;;10.23;7.50;;;;;;;-139.48;100.00;61774.03;4973656;28;20046;-68
2022/02/03 10:00:43;;;;;;;11.05;7.75;;;;;;;-139.48;100.00;61774.03;4975055;28;20045;-69
2022/02/03 10:06:38;;;;;;;10.23;7.57;;;;;;;-139.48;100.00;61774.03;4974639;28;20050;-69
2022/02/03 10:09:39;;;;;;;12.05;7.55;;;;;;;-139.48;100.00;61774.03;4959620;28;20054;-68
2022/02/03 10:12:50;;;;;;;11.57;7.90;;;;;;;-139.48;100.00;61774.03;4959762;28;20078;-68
2022/02/03 10:15:34;;;;;;;9.13;6.75;;;;;;;-139.48;100.00;61774.03;4959987;28;20417;-68
2022/02/03 10:18:25;;;;;;;10.45;6.93;;;;;;;-139.48;100.00;61774.03;4959749;28;20105;-69
2022/02/03 10:21:18;;;;;;;10.95;6.55;;;;;;;-139.48;100.00;61774.03;4974424;28;20093;-68
2022/02/03 10:24:06;;;;;;;9.80;6.88;;;;;;;-139.48;100.00;61774.03;4974369;28;20410;-69
2022/02/03 10:26:52;;;;;;;9.27;6.22;;;;;;;-139.48;100.00;61774.03;4973298;28;20128;-68
2022/02/03 10:29:43;;;;;;;9.25;5.60;;;;;;;-139.48;100.00;61774.03;4972959;28;20104;-69
2022/02/03 10:32:27;;;;;;;7.85;5.82;;;;;;;-139.48;100.00;61774.03;4974111;28;20100;-69
2022/02/03 10:35:22;;;;;;;7.22;5.85;;;;;;;-139.48;100.00;61774.03;4974163;28;20573;-68
2022/02/03 10:47:00;;;;;;;6.63;4.75;;;;;;;-139.48;100.00;61774.03;4973077;28;20058;-69
2022/02/03 10:59:33;;;;;;;6.65;3.97;;;;;;;-139.48;100.00;61774.03;4973017;28;20055;-68
2022/02/03 11:08:16;;;;;;;6.68;3.83;;;;;;;-139.48;100.00;61774.03;4973891;28;20054;-69
2022/02/03 11:11:02;;;;;;;4.72;3.95;;;;;;;-139.48;100.00;61774.03;4973019;28;20144;-69
2022/02/03 11:13:47;;;;;;;5.00;3.30;;;;;;;-139.48;100.00;61774.03;4974757;28;20514;-69
2022/02/03 11:16:39;;;;;;;5.40;3.25;;;;;;;-139.48;100.00;61774.03;4977713;28;20097;-69
2022/02/03 11:19:27;;;;;;;3.45;3.05;;;;;;;-139.48;100.00;61774.03;4962761;28;20050;-69
2022/02/03 11:22:12;;;;;;;6.55;3.38;;;;;;;-139.48;100.00;61774.03;4976841;28;20158;-69
2022/02/03 11:25:14;;;;;;;4.10;3.20;;;;;;;-139.48;100.00;61774.03;4976536;28;20082;-69
2022/02/03 11:50:07;;;;;;;2.90;2.20;;;;;;;-139.48;100.00;61774.03;4977129;28;20054;-70
2022/02/03 12:01:58;;;;;;;2.25;1.55;;;;;;;-139.48;100.00;61774.03;4977176;28;20406;-70
2022/02/03 12:19:46;;;;;;;;;;;;;;;-139.48;100.00;61774.03;4977013;28;20160;-70
2022/02/03 12:22:53;;;;;;;2.38;2.17;;;;;;;-139.48;100.00;61774.03;4976537;28;19976;-71
2022/02/03 12:25:56;;;;;;;4.90;1.85;;;;;;;-139.48;100.00;61774.03;4975130;28;20046;-70
2022/02/03 12:28:52;;;;;;;2.42;2.20;;;;;;;-139.48;100.00;61774.03;4975995;28;20049;-71
2022/02/03 12:31:53;;;;;;;2.40;2.20;;;;;;;-139.48;100.00;61774.03;4975295;28;20085;-70
2022/02/03 12:40:56;;;;;;;3.50;1.90;;;;;;;-139.48;100.00;61774.03;4975195;28;20381;-70
2022/02/03 12:43:57;;;;;;;3.90;2.58;;;;;;;-139.48;100.00;61774.03;4961590;28;20128;-70
2022/02/03 12:46:41;;;;;;;3.88;2.20;;;;;;;-139.48;100.00;61774.03;4961355;28;20049;-70
2022/02/03 12:49:25;;;;;;;3.70;1.90;;;;;;;-139.48;100.00;61774.03;4961301;28;20049;-70
2022/02/03 12:52:27;;;;;;;2.25;1.95;;;;;;;-139.48;100.00;61774.03;4974825;28;20097;-70
2022/02/03 12:55:22;;;;;;;2.85;2.50;;;;;;;-139.48;100.00;61774.03;4961175;28;20561;-70
2022/02/03 12:58:16;;;;;;;2.80;2.50;;;;;;;-139.48;100.00;61774.03;4961481;28;20054;-70
2022/02/03 13:01:02;;;;;;;5.15;2.00;;;;;;;-139.48;100.00;61774.03;4975589;28;20086;-70
2022/02/03 13:03:52;;;;;;;2.70;2.25;;;;;;;-139.48;100.00;61774.03;4975542;28;20073;-70
2022/02/03 13:06:40;;;;;;;3.50;2.60;;;;;;;-139.48;100.00;61774.03;4960980;28;20403;-70
2022/02/03 13:09:37;;;;;;;5.57;2.45;;;;;;;-139.48;100.00;61774.03;4974652;28;20073;-70
2022/02/03 13:12:31;;;;;;;3.80;2.47;;;;;;;-139.48;100.00;61774.03;4974980;28;20132;-70
2022/02/03 13:15:33;;;;;;;2.97;2.33;;;;;;;-139.48;100.00;61774.03;4961620;28;20050;-70
2022/02/03 13:18:30;;;;;;;3.22;2.92;;;;;;;-139.48;100.00;61774.03;4974231;28;20074;-71
2022/02/03 13:21:48;;;;;;;3.00;2.70;;;;;;;-139.48;100.00;61774.03;4962146;28;20073;-71
2022/02/03 13:24:48;;;;;;;4.47;2.85;;;;;;;-139.48;100.00;61774.03;4974400;28;20085;-70
2022/02/03 13:28:28;;;;;;;6.18;2.72;;;;;;;-139.48;100.00;61774.03;4975197;28;20409;-70
2022/02/03 13:33:41;;;;;;;4.20;2.70;;;;;;;-139.48;100.00;61774.03;4975255;28;20101;-70
2022/02/03 13:36:38;;;;;;;4.75;2.78;;;;;;;-139.48;100.00;61774.03;4973671;28;20097;-71
2022/02/03 13:39:30;;;;;;;2.42;2.10;;;;;;;-139.48;100.00;61774.03;4960062;28;20089;-70
2022/02/03 13:42:15;;;;;;;3.35;2.53;;;;;;;-139.48;100.00;61774.03;4975074;28;20062;-70
2022/02/03 13:45:06;;;;;;;4.82;2.33;;;;;;;-139.48;100.00;61774.03;4973886;28;20193;-70
2022/02/03 13:47:51;;;;;;;5.20;2.63;;;;;;;-139.48;100.00;61774.03;4960396;28;20049;-71
2022/02/03 13:50:35;;;;;;;3.70;2.30;;;;;;;-139.48;100.00;61774.03;4975295;28;20054;-70
2022/02/03 13:53:24;;;;;;;3.58;2.72;;;;;;;-139.48;100.00;61774.03;4974567;28;20411;-70
2022/02/03 14:26:50;;;;;;;3.85;3.08;;;;;;;-139.48;100.00;61774.03;4973688;28;20050;-70
2022/02/03 14:29:37;;;;;;;3.90;2.88;;;;;;;-139.48;100.00;61774.03;4972981;28;20097;-70
2022/02/03 14:32:36;;;;;;;4.45;2.95;;;;;;;-139.48;100.00;61774.03;4974542;28;20466;-70
2022/02/03 14:35:19;;;;;;;4.43;3.30;;;;;;;-139.48;100.00;61774.03;4973150;28;20438;-70
2022/02/03 14:38:15;;;;;;;4.60;3.13;;;;;;;-139.48;100.00;61774.03;4972903;28;20057;-70
2022/02/03 14:41:18;;;;;;;5.45;3.72;;;;;;;-139.48;100.00;61774.03;4973271;28;20465;-70
2022/02/03 14:44:03;;;;;;;7.10;3.70;;;;;;;-139.48;100.00;61774.03;4973215;28;20054;-71
2022/02/03 14:46:47;;;;;;;3.50;2.83;;;;;;;-139.48;100.00;61774.03;4959210;28;20050;-70
2022/02/03 14:49:31;;;;;;;4.75;3.70;;;;;;;-139.48;100.00;61774.03;4972075;28;20510;-71
2022/02/03 14:58:19;;;;;;;4.10;2.90;;;;;;;-139.48;100.00;61774.03;4973852;28;20097;-70
2022/02/03 15:01:03;;;;;;;2.97;2.20;;;;;;;-139.48;100.00;61774.03;4972921;28;20048;-70
2022/02/03 15:03:47;;;;;;;3.30;1.85;;;;;;;-139.48;100.00;61774.03;4973972;28;20050;-70
2022/02/03 15:06:53;;;;;;;1.75;1.58;;;;;;;-139.48;100.00;61774.03;4972924;28;20569;-70
2022/02/03 15:12:42;;;;;;;1.67;1.33;;;;;;;-139.48;100.00;61774.03;4973227;28;20204;-70
2022/02/03 15:15:26;;;;;;;2.45;1.40;;;;;;;-139.48;100.00;61774.03;4972892;28;20130;-70
2022/02/03 15:18:10;;;;;;;1.88;1.38;;;;;;;-139.48;100.00;61774.03;4972796;28;20057;-70
2022/02/03 15:20:56;;;;;;;2.45;1.45;;;;;;;-139.48;100.00;61774.03;4972461;28;20157;-70
2022/02/03 15:23:40;;;;;;;1.75;1.30;;;;;;;-139.48;100.00;61774.03;4959050;28;20050;-70
2022/02/03 15:26:24;;;;;;;4.90;1.30;;;;;;;-139.48;100.00;61774.03;4973550;28;20109;-70
2022/02/03 15:29:08;;;;;;;1.20;1.10;;;;;;;-139.48;100.00;61774.03;4973267;28;20110;-70
2022/02/03 15:31:52;;;;;;;4.13;1.35;;;;;;;-139.48;100.00;61774.03;4973713;28;20130;-70
2022/02/03 15:34:36;;;;;;;1.63;1.33;;;;;;;-139.48;100.00;61774.03;4972586;28;20058;-70
2022/02/03 15:37:21;;;;;;;2.25;1.70;;;;;;;-139.48;100.00;61774.03;4973506;28;20201;-70
2022/02/03 15:40:11;;;;;;;1.30;1.20;;;;;;;-139.48;100.00;61774.03;4958961;28;20587;-70
2022/02/03 15:43:07;;;;;;;1.35;1.25;;;;;;;-139.48;100.00;61774.03;4974148;28;20096;-70
2022/02/03 15:45:56;;;;;;;1.60;1.45;;;;;;;-139.48;100.00;61774.03;4958715;28;20051;-70
2022/02/03 15:48:52;;;;;;;3.80;1.60;;;;;;;-139.48;100.00;61774.03;4972295;28;20073;-70
2022/02/03 16:03:28;;;;;;;1.23;1.13;;;;;;;-139.48;100.00;61774.03;4976757;28;20065;-70
2022/02/03 16:18:26;;;;;;;1.92;1.60;;;;;;;-139.48;100.00;61774.03;4976379;28;20100;-70
2022/02/03 16:21:35;;;;;;;2.17;1.45;;;;;;;-139.48;100.00;61774.03;4976876;28;20073;-70
2022/02/03 16:24:53;;;;;;;3.67;1.60;;;;;;;-139.48;100.00;61774.03;4976783;28;20049;-70
2022/02/03 16:54:54;;;;;;;2.88;1.83;;;;;;;-139.48;100.00;61774.03;4975044;28;20502;-70
2022/02/03 16:57:38;;;;;;;2.92;1.70;;;;;;;-139.48;100.00;61774.03;4975982;28;20081;-70
2022/02/03 17:00:23;;;;;;;2.17;1.65;;;;;;;-139.48;100.00;61774.03;4960931;28;20065;-70
2022/02/03 17:03:07;;;;;;;3.60;2.35;;;;;;;-139.48;100.00;61774.03;4961187;28;20098;-70
2022/02/03 17:05:51;;;;;;;2.60;1.77;;;;;;;-139.48;100.00;61774.03;4974673;28;20062;-70
2022/02/03 17:08:36;;;;;;;5.78;1.92;;;;;;;-139.48;100.00;61774.03;4974392;28;20097;-71
2022/02/03 17:11:19;;;;;;;3.20;2.08;;;;;;;-139.48;100.00;61774.03;4973876;28;20129;-71
2022/02/03 17:14:03;;;;;;;3.78;1.67;;;;;;;-139.48;100.00;61774.03;4974513;28;20105;-71
2022/02/03 17:16:47;;;;;;;;;;;;;;;-139.48;100.00;61774.03;4975813;28;20125;-71
2022/02/03 17:19:31;;;;;;;2.37;1.63;;;;;;;-139.48;100.00;61774.03;4960565;28;19925;-71
2022/02/03 17:22:18;;;;;;;3.95;1.95;;;;;;;-139.48;100.00;61774.03;4975174;28;20054;-71
2022/02/03 17:25:09;;;;;;;3.30;1.83;;;;;;;-139.48;100.00;61774.03;4961032;28;20102;-71
2022/02/03 17:30:44;;;;;;;4.25;2.13;;;;;;;-139.48;100.00;61774.03;4974594;28;20134;-71
2022/02/03 18:35:53;;;;;;;2.58;1.98;;;;;;;-139.48;100.00;61774.03;4973213;28;20061;-70
2022/02/03 18:53:32;;;;;;;4.55;2.60;;;;;;;-139.48;100.00;61774.03;4985456;28;20065;-70
2022/02/03 20:05:39;;;;;;;6.47;3.83;;;;;;;-139.48;100.00;61774.03;5015817;28;20125;-70
2022/02/03 20:08:39;;;;;;;5.28;3.45;;;;;;;-139.48;100.00;61774.03;5015901;28;20045;-70
2022/02/03 20:11:24;;;;;;;6.68;3.60;;;;;;;-139.48;100.00;61774.03;5003104;28;20072;-70
2022/02/03 20:14:14;;;;;;;6.70;3.63;;;;;;;-139.48;100.00;61774.03;5015835;28;20053;-70
2022/02/03 20:16:58;;;;;;;8.63;4.60;;;;;;;-139.48;100.00;61774.03;5000831;28;20045;-70
2022/02/03 20:19:42;;;;;;;7.53;5.00;;;;;;;-139.48;100.00;61774.03;4986790;28;20100;-67
2022/02/03 20:22:31;;;;;;;;;;;;;;;-139.48;100.00;61774.03;4987409;28;20045;-69
2022/02/03 20:25:15;;;;;;;7.05;4.63;;;;;;;-139.48;100.00;61774.03;5015455;28;20324;-69
2022/02/03 20:27:59;;;;;;;7.88;4.88;;;;;;;-139.48;100.00;61774.03;5015328;28;20053;-70
2022/02/03 20:30:43;;;;;;;8.60;5.13;;;;;;;-139.48;100.00;61774.03;5000324;28;20198;-70
2022/02/03 20:33:27;;;;;;;6.07;4.40;;;;;;;-139.48;100.00;61774.03;5000406;28;20099;-69
2022/02/03 20:36:11;;;;;;;8.90;5.32;;;;;;;-139.48;100.00;61774.03;4986393;28;20125;-70
2022/02/03 20:38:55;;;;;;;;;;;;;;;-139.48;100.00;61774.03;5000586;28;20053;-69
2022/02/03 20:41:39;;;;;;;5.57;4.50;;;;;;;-139.48;100.00;61774.03;5000307;28;19919;-69
2022/02/03 20:44:23;;;;;;;7.70;5.05;;;;;;;-139.48;100.00;61774.03;5000177;28;20270;-70
2022/02/03 20:47:08;;;;;;;8.82;4.85;;;;;;;-139.48;100.00;61774.03;4998849;28;20048;-69
2022/02/03 20:49:52;;;;;;;8.13;4.80;;;;;;;-139.48;100.00;61774.03;4999956;28;20049;-70
2022/02/03 20:52:36;;;;;;;6.53;4.65;;;;;;;-139.48;100.00;61774.03;4986402;28;20515;-69
2022/02/03 20:55:20;;;;;;;7.93;4.20;;;;;;;-139.48;100.00;61774.03;4999855;28;20230;-70
2022/02/03 20:58:04;;;;;;;4.88;4.20;;;;;;;-139.48;100.00;61774.03;5015011;28;20107;-69
2022/02/03 21:00:54;;;;;;;6.78;4.30;;;;;;;-139.48;100.00;61774.03;5014684;28;20116;-70
2022/02/03 21:03:42;;;;;;;5.35;4.50;;;;;;;-139.48;100.00;61774.03;5000733;28;20100;-70
2022/02/03 21:06:26;;;;;;;7.25;4.60;;;;;;;-139.48;100.00;61774.03;4986542;28;20056;-69
2022/02/03 21:09:10;;;;;;;5.38;4.07;;;;;;;-139.48;100.00;61774.03;4999947;28;20056;-69
2022/02/03 21:11:54;;;;;;;7.40;4.70;;;;;;;-139.48;100.00;61774.03;5014498;28;20520;-69
2022/02/03 21:14:38;;;;;;;6.30;4.53;;;;;;;-139.48;100.00;61774.03;4999654;28;20520;-70
2022/02/03 21:17:23;;;;;;;7.45;5.50;;;;;;;-139.48;100.00;61774.03;4999990;28;20064;-69
2022/02/03 21:20:14;;;;;;;9.23;4.97;;;;;;;-139.48;100.00;61774.03;5014544;28;20053;-70
2022/02/03 21:22:58;;;;;;;7.55;4.97;;;;;;;-139.48;100.00;61774.03;5014345;28;20528;-70
2022/02/03 21:25:48;;;;;;;8.15;5.10;;;;;;;-139.48;100.00;61774.03;5014316;28;20048;-69
2022/02/03 21:28:35;;;;;;;6.38;4.65;;;;;;;-139.48;100.00;61774.03;5000552;28;20056;-68
2022/02/03 21:31:19;;;;;;;6.80;4.65;;;;;;;-139.48;100.00;61774.03;4999663;28;20177;-70
2022/02/03 21:34:09;;;;;;;5.93;4.43;;;;;;;-139.48;100.00;61774.03;4999407;28;20053;-70
2022/02/03 21:36:55;;;;;;;7.78;4.88;;;;;;;-139.48;100.00;61774.03;5000042;28;20440;-69
2022/02/03 21:39:39;;;;;;;7.63;4.45;;;;;;;-139.48;100.00;61774.03;5014237;28;20469;-69
2022/02/03 21:42:23;;;;;;;;;;;;;;;-139.48;100.00;61774.03;5014634;28;20069;-70
2022/02/03 21:45:08;;;;;;;6.37;4.90;;;;;;;-139.48;100.00;61774.03;4998816;28;19940;-70
2022/02/03 21:47:52;;;;;;;6.70;4.70;;;;;;;-139.48;100.00;61774.03;4999262;28;20095;-70
2022/02/03 21:50:39;;;;;;;5.90;4.20;;;;;;;-139.48;100.00;61774.03;5014055;28;20107;-70
2022/02/03 21:53:28;;;;;;;7.70;4.70;;;;;;;-139.48;100.00;61774.03;4999405;28;20512;-69
2022/02/03 21:56:13;;;;;;;6.72;4.75;;;;;;;-139.48;100.00;61774.03;5013934;28;20374;-70
2022/02/03 21:58:57;;;;;;;5.70;4.53;;;;;;;-139.48;100.00;61774.03;5013566;28;20532;-70
2022/02/03 22:01:43;;;;;;;6.57;4.78;;;;;;;-139.48;100.00;61774.03;5013981;28;20179;-69
2022/02/03 22:04:27;;;;;;;7.75;5.05;;;;;;;-139.48;100.00;61774.03;4998930;28;20406;-68
2022/02/03 22:07:11;;;;;;;7.60;5.43;;;;;;;-139.48;100.00;61774.03;5013466;28;20052;-70
2022/02/03 22:09:54;;;;;;;7.13;4.78;;;;;;;-139.48;100.00;61774.03;4998781;28;20459;-69
2022/02/03 22:12:38;;;;;;;6.28;4.47;;;;;;;-139.48;100.00;61774.03;5013542;28;20476;-69
2022/02/03 22:15:23;;;;;;;;;;;;;;;-139.48;100.00;61774.03;4998796;28;20472;-70
2022/02/03 22:18:12;;;;;;;6.13;4.75;;;;;;;-139.48;100.00;61774.03;4985235;28;19960;-69
2022/02/03 22:21:02;;;;;;;7.75;4.65;;;;;;;-139.48;100.00;61774.03;4999094;28;20052;-69
2022/02/03 22:24:04;;;;;;;6.63;4.43;;;;;;;-139.48;100.00;61774.03;5013700;28;20099;-69
2022/02/03 22:27:10;;;;;;;7.25;4.80;;;;;;;-139.48;100.00;61774.03;4998521;28;20091;-67
2022/02/03 22:42:28;;;;;;;5.82;4.40;;;;;;;-139.48;100.00;61774.03;5000736;28;20092;-69
2022/02/03 22:45:17;;;;;;;8.27;4.30;;;;;;;-139.48;100.00;61774.03;4999462;28;20499;-69
2022/02/03 22:48:15;;;;;;;6.03;4.20;;;;;;;-139.48;100.00;61774.03;4998203;28;20049;-70
2022/02/03 22:51:01;;;;;;;5.32;4.00;;;;;;;-139.48;100.00;61774.03;4986332;28;20050;-69
2022/02/03 22:53:46;;;;;;;5.18;3.88;;;;;;;-139.48;100.00;61774.03;4984122;28;20129;-69
2022/02/03 22:56:30;;;;;;;5.22;3.80;;;;;;;-139.48;100.00;61774.03;4997910;28;20053;-69
2022/02/03 23:02:13;;;;;;;4.47;3.38;;;;;;;-139.48;100.00;61774.03;5013529;28;20147;-69
2022/02/03 23:04:57;;;;;;;;;;;;;;;-139.48;100.00;61774.03;4998461;28;20077;-69
2022/02/03 23:10:47;;;;;;;4.38;3.10;;;;;;;-139.48;100.00;61774.03;5001166;28;20132;-69
2022/02/03 23:22:15;;;;;;;3.95;3.00;;;;;;;-139.48;100.00;61774.03;5004617;28;20096;-69
2022/02/03 23:25:01;;;;;;;10.05;3.50;;;;;;;-139.48;100.00;61774.03;5001574;28;20072;-70
2022/02/03 23:28:09;;;;;;;5.50;3.28;;;;;;;-139.48;100.00;61774.03;5016641;28;20501;-70
2022/02/03 23:30:53;;;;;;;8.95;3.22;;;;;;;-139.48;100.00;61774.03;4990872;28;20092;-68
2022/02/03 23:33:37;;;;;;;;;;;;;;;-139.48;100.00;61774.03;5016726;28;20132;-68
2022/02/03 23:36:21;;;;;;;4.57;3.60;;;;;;;-139.48;100.00;61774.03;4987854;28;19967;-69
2022/02/03 23:39:29;;;;;;;4.25;3.47;;;;;;;-139.48;100.00;61774.03;5001607;28;20132;-69
2022/02/03 23:45:17;;;;;;;5.60;3.30;;;;;;;-139.48;100.00;61774.03;5001846;28;20524;-70
2022/02/03 23:49:24;;;;;;;5.30;3.20;;;;;;;-139.48;100.00;61774.03;5004032;28;20056;-69
